createdAt,value
2023-01-18T00:00:41.391Z,12.67
2023-01-18T00:03:13.146Z,12.83
2023-01-18T00:05:41.227Z,12.57
2023-01-18T00:08:09.311Z,11.90
2023-01-18T00:10:35.958Z,12.77
2023-01-18T00:13:02.436Z,12.53
2023-01-18T00:15:28.956Z,12.30
2023-01-18T00:17:55.751Z,12.27
2023-01-18T00:20:24.798Z,12.67
2023-01-18T00:22:53.690Z,11.67
2023-01-18T00:25:22.949Z,12.50
2023-01-18T00:27:52.879Z,12.43
2023-01-18T00:30:23.474Z,12.47
2023-01-18T00:32:53.585Z,12.13
2023-01-18T00:35:22.219Z,11.27
2023-01-18T00:37:51.975Z,12.70
2023-01-18T00:40:19.891Z,12.60
2023-01-18T00:43:04.954Z,11.90
2023-01-18T00:45:31.544Z,12.47
2023-01-18T00:47:58.461Z,12.40
2023-01-18T00:50:25.409Z,11.77
2023-01-18T00:52:56.921Z,12.37
2023-01-18T00:55:23.830Z,11.97
2023-01-18T00:57:50.534Z,13.33
2023-01-18T01:00:18.991Z,12.43
2023-01-18T01:02:45.487Z,11.90
2023-01-18T01:05:38.594Z,12.00
2023-01-18T01:08:05.938Z,12.13
2023-01-18T01:10:33.801Z,12.10
2023-01-18T01:13:19.131Z,12.60
2023-01-18T01:16:04.240Z,12.87
2023-01-18T01:18:49.615Z,12.53
2023-01-18T01:21:34.685Z,12.37
2023-01-18T01:24:19.867Z,11.93
2023-01-18T01:26:46.343Z,12.67
2023-01-18T01:29:12.725Z,11.63
2023-01-18T01:31:39.366Z,13.20
2023-01-18T01:34:06.434Z,12.70
2023-01-18T01:36:33.030Z,13.23
2023-01-18T01:39:00.192Z,12.53
2023-01-18T01:41:29.144Z,13.13
2023-01-18T01:44:00.843Z,13.30
2023-01-18T01:46:43.374Z,13.17
2023-01-18T01:49:15.233Z,13.43
2023-01-18T01:51:43.590Z,12.93
2023-01-18T01:54:23.789Z,12.70
2023-01-18T01:56:52.797Z,13.40
2023-01-18T01:59:20.012Z,13.63
2023-01-18T02:01:46.839Z,13.93
2023-01-18T02:04:13.637Z,13.50
2023-01-18T02:06:40.537Z,13.93
2023-01-18T02:09:14.472Z,13.80
2023-01-18T02:11:41.487Z,14.37
2023-01-18T02:14:10.929Z,14.23
2023-01-18T02:16:54.717Z,14.53
2023-01-18T02:19:46.500Z,14.23
2023-01-18T02:23:07.618Z,14.47
2023-01-18T02:26:05.499Z,14.57
2023-01-18T02:28:37.706Z,14.13
2023-01-18T02:31:12.579Z,14.83
2023-01-18T02:33:43.582Z,13.93
2023-01-18T02:36:14.436Z,14.93
2023-01-18T02:38:47.629Z,14.80
2023-01-18T02:41:56.655Z,15.00
2023-01-18T02:44:46.345Z,15.47
2023-01-18T02:47:12.865Z,16.37
2023-01-18T02:49:39.358Z,16.97
2023-01-18T02:52:07.635Z,18.20
2023-01-18T02:54:36.396Z,16.80
2023-01-18T02:57:06.082Z,17.13
2023-01-18T02:59:40.379Z,17.13
2023-01-18T03:02:11.546Z,17.17
2023-01-18T03:04:42.103Z,18.27
2023-01-18T03:07:11.792Z,18.13
2023-01-18T03:09:39.822Z,19.40
2023-01-18T03:12:47.877Z,18.60
2023-01-18T03:15:30.703Z,18.50
2023-01-18T03:18:24.895Z,20.27
2023-01-18T03:20:53.226Z,21.63
2023-01-18T03:23:41.068Z,21.03
2023-01-18T03:26:14.616Z,21.97
2023-01-18T03:29:14.553Z,25.13
2023-01-18T03:32:03.397Z,23.47
2023-01-18T03:34:56.545Z,23.43
2023-01-18T03:37:37.753Z,22.10
2023-01-18T03:40:14.025Z,21.70
2023-01-18T03:42:55.293Z,21.73
2023-01-18T03:45:30.869Z,22.77
2023-01-18T03:47:57.354Z,24.23
2023-01-18T03:50:27.619Z,21.17
2023-01-18T03:52:58.482Z,20.37
2023-01-18T03:55:34.848Z,20.10
2023-01-18T03:58:10.542Z,20.37
2023-01-18T04:00:38.398Z,20.07
2023-01-18T04:03:05.282Z,21.20
2023-01-18T04:05:31.801Z,19.33
2023-01-18T04:07:58.200Z,20.13
2023-01-18T04:10:26.675Z,18.63
2023-01-18T04:12:53.166Z,19.17
2023-01-18T04:15:20.308Z,19.73
2023-01-18T04:17:49.750Z,19.77
2023-01-18T04:20:16.448Z,18.90
2023-01-18T04:22:42.929Z,20.47
2023-01-18T04:25:09.582Z,20.10
2023-01-18T04:27:36.019Z,20.87
2023-01-18T04:30:02.600Z,21.07
2023-01-18T04:32:29.075Z,19.60
2023-01-18T04:34:55.530Z,21.27
2023-01-18T04:37:30.270Z,19.90
2023-01-18T04:39:57.458Z,19.87
2023-01-18T04:42:25.808Z,19.47
2023-01-18T04:44:53.207Z,20.20
2023-01-18T04:47:19.622Z,20.57
2023-01-18T04:49:45.988Z,19.60
2023-01-18T04:52:12.498Z,19.43
2023-01-18T04:54:38.872Z,19.47
2023-01-18T04:57:05.312Z,16.97
2023-01-18T04:59:31.704Z,15.30
2023-01-18T05:01:58.277Z,15.77
2023-01-18T05:04:24.767Z,14.93
2023-01-18T05:06:51.446Z,16.43
2023-01-18T05:09:17.856Z,15.43
2023-01-18T05:11:44.268Z,16.53
2023-01-18T05:14:11.835Z,16.50
2023-01-18T05:16:38.234Z,17.67
2023-01-18T05:19:04.653Z,17.10
2023-01-18T05:21:31.127Z,17.57
2023-01-18T05:23:57.583Z,17.70
2023-01-18T05:26:24.407Z,17.43
2023-01-18T05:28:56.613Z,17.87
2023-01-18T05:31:23.391Z,18.00
2023-01-18T05:33:50.193Z,18.53
2023-01-18T05:36:17.283Z,22.30
2023-01-18T05:38:43.751Z,22.03
2023-01-18T05:41:10.127Z,21.33
2023-01-18T05:43:38.230Z,21.47
2023-01-18T05:46:05.400Z,27.23
2023-01-18T05:48:32.288Z,22.87
2023-01-18T05:50:58.989Z,22.30
2023-01-18T05:53:25.548Z,20.20
2023-01-18T05:55:57.534Z,21.63
2023-01-18T05:58:25.025Z,19.63
2023-01-18T06:00:51.769Z,19.93
2023-01-18T06:03:18.391Z,22.67
2023-01-18T06:05:44.795Z,22.70
2023-01-18T06:08:11.245Z,22.00
2023-01-18T06:10:38.850Z,19.87
2023-01-18T06:13:06.719Z,21.80
2023-01-18T06:15:33.795Z,20.33
2023-01-18T06:18:00.236Z,20.90
2023-01-18T06:20:30.330Z,20.63
2023-01-18T06:22:58.425Z,20.00
2023-01-18T06:25:25.820Z,23.33
2023-01-18T06:27:52.261Z,20.10
2023-01-18T06:30:19.313Z,20.57
2023-01-18T06:32:45.775Z,19.43
2023-01-18T06:35:12.226Z,20.73
2023-01-18T06:37:38.776Z,23.47
2023-01-18T06:40:05.911Z,21.17
2023-01-18T06:42:33.042Z,20.30
2023-01-18T06:44:59.683Z,19.17
2023-01-18T06:47:26.348Z,21.00
2023-01-18T06:49:52.812Z,19.33
2023-01-18T06:52:19.306Z,19.43
2023-01-18T06:54:45.945Z,18.97
2023-01-18T06:57:12.596Z,20.57
2023-01-18T06:59:39.828Z,20.37
2023-01-18T07:02:07.188Z,20.57
2023-01-18T07:04:35.667Z,20.93
2023-01-18T07:07:02.284Z,20.00
2023-01-18T07:09:28.945Z,20.43
2023-01-18T07:11:55.395Z,19.63
2023-01-18T07:14:22.027Z,21.30
2023-01-18T07:16:48.631Z,19.53
2023-01-18T07:19:16.343Z,20.90
2023-01-18T07:21:42.797Z,21.27
2023-01-18T07:24:09.346Z,22.23
2023-01-18T07:26:35.819Z,22.90
2023-01-18T07:29:03.063Z,22.03
2023-01-18T07:31:30.203Z,21.10
2023-01-18T07:33:56.735Z,21.97
2023-01-18T07:36:23.507Z,21.57
2023-01-18T07:38:49.951Z,21.03
2023-01-18T07:41:16.926Z,19.50
2023-01-18T07:43:44.734Z,20.77
2023-01-18T07:46:13.617Z,19.20
2023-01-18T07:48:40.071Z,18.60
2023-01-18T07:51:08.682Z,20.10
2023-01-18T07:53:36.776Z,19.93
2023-01-18T07:56:05.496Z,19.23
2023-01-18T07:58:31.933Z,18.73
2023-01-18T08:01:10.087Z,18.90
2023-01-18T08:03:37.251Z,19.63
2023-01-18T08:06:06.472Z,20.13
2023-01-18T08:08:34.446Z,18.87
2023-01-18T08:11:02.316Z,19.77
2023-01-18T08:13:28.805Z,20.43
2023-01-18T08:15:56.348Z,19.13
2023-01-18T08:18:23.654Z,18.43
2023-01-18T08:20:50.211Z,18.30
2023-01-18T08:23:17.129Z,19.93
2023-01-18T08:25:44.504Z,21.47
2023-01-18T08:28:11.519Z,19.47
2023-01-18T08:30:41.154Z,19.73
2023-01-18T08:33:08.231Z,19.33
2023-01-18T08:35:43.109Z,19.67
2023-01-18T08:38:10.728Z,19.50
2023-01-18T08:40:37.138Z,19.43
2023-01-18T08:43:05.338Z,18.87
2023-01-18T08:45:32.528Z,18.80
2023-01-18T08:48:00.877Z,19.17
2023-01-18T08:50:28.325Z,19.17
2023-01-18T08:52:55.032Z,19.60
2023-01-18T08:55:22.496Z,18.70
2023-01-18T08:57:49.735Z,19.40
2023-01-18T09:00:17.357Z,19.10
2023-01-18T09:02:43.866Z,18.97
2023-01-18T09:05:10.554Z,19.57
2023-01-18T09:07:37.046Z,18.37
2023-01-18T09:10:04.828Z,19.73
2023-01-18T09:12:31.634Z,18.73
2023-01-18T09:14:58.042Z,18.87
2023-01-18T09:17:24.535Z,19.73
2023-01-18T09:19:51.007Z,19.07
2023-01-18T09:22:17.468Z,21.40
2023-01-18T09:24:43.940Z,21.73
2023-01-18T09:27:11.025Z,20.60
2023-01-18T09:29:37.507Z,20.60
2023-01-18T09:32:04.235Z,20.60
2023-01-18T09:34:30.665Z,21.67
2023-01-18T09:36:57.192Z,20.80
2023-01-18T09:39:23.995Z,20.73
2023-01-18T09:41:59.188Z,20.40
2023-01-18T09:44:33.407Z,19.47
2023-01-18T09:47:10.604Z,19.57
2023-01-18T09:49:41.320Z,20.43
2023-01-18T09:52:16.447Z,23.67
2023-01-18T09:54:51.736Z,20.93
2023-01-18T09:57:49.225Z,19.67
2023-01-18T10:00:20.519Z,19.63
2023-01-18T10:02:48.911Z,20.43
2023-01-18T10:05:21.161Z,19.03
2023-01-18T10:08:13.495Z,20.97
2023-01-18T10:10:47.673Z,19.80
2023-01-18T10:13:35.240Z,19.93
2023-01-18T10:16:03.121Z,20.13
2023-01-18T10:18:30.316Z,21.27
2023-01-18T10:21:01.408Z,50.00
2023-01-18T10:23:34.714Z,21.57
2023-01-18T10:26:07.716Z,21.93
2023-01-18T10:28:53.215Z,38.80
2023-01-18T10:31:41.114Z,20.50
2023-01-18T10:34:20.255Z,20.03
2023-01-18T10:36:53.094Z,21.37
2023-01-18T10:39:41.608Z,20.77
2023-01-18T10:42:28.632Z,19.70
2023-01-18T10:44:55.094Z,20.10
2023-01-18T10:47:21.625Z,20.53
2023-01-18T10:49:50.430Z,21.20
2023-01-18T10:52:19.064Z,19.23
2023-01-18T10:55:18.425Z,20.47
2023-01-18T10:57:49.976Z,21.67
2023-01-18T11:00:32.356Z,20.53
2023-01-18T11:02:59.984Z,22.60
2023-01-18T11:05:33.632Z,21.67
2023-01-18T11:08:23.559Z,31.20
2023-01-18T11:11:07.240Z,20.37
2023-01-18T11:13:43.789Z,25.40
2023-01-18T11:16:22.051Z,20.03
2023-01-18T11:19:02.339Z,21.43
2023-01-18T11:21:51.955Z,20.90
2023-01-18T11:24:24.804Z,20.97
2023-01-18T11:27:16.880Z,21.40
2023-01-18T11:29:45.109Z,23.87
2023-01-18T11:32:29.193Z,21.37
2023-01-18T11:34:58.097Z,22.43
2023-01-18T11:37:36.818Z,21.07
2023-01-18T11:40:18.812Z,20.60
2023-01-18T11:42:46.109Z,19.87
2023-01-18T11:45:16.040Z,21.67
2023-01-18T11:47:54.669Z,18.90
2023-01-18T11:50:28.349Z,20.40
2023-01-18T11:53:03.344Z,20.13
2023-01-18T11:55:55.896Z,20.60
2023-01-18T11:58:28.437Z,21.70
2023-01-18T12:01:25.171Z,23.80
2023-01-18T12:04:39.888Z,20.97
2023-01-18T12:07:35.971Z,23.00
2023-01-18T12:10:03.018Z,24.97
2023-01-18T12:12:53.431Z,24.30
2023-01-18T12:15:33.122Z,26.37
2023-01-18T12:18:17.182Z,24.60
2023-01-18T12:21:22.655Z,26.23
2023-01-18T12:23:59.821Z,23.77
2023-01-18T12:26:42.784Z,24.93
2023-01-18T12:29:19.103Z,23.50
2023-01-18T12:31:51.414Z,24.47
2023-01-18T12:34:23.506Z,25.13
2023-01-18T12:36:58.327Z,24.10
2023-01-18T12:39:57.676Z,25.00
2023-01-18T12:42:29.089Z,24.77
2023-01-18T12:45:17.177Z,26.70
2023-01-18T12:47:52.943Z,26.57
2023-01-18T12:50:24.194Z,26.00
2023-01-18T12:52:54.869Z,27.10
2023-01-18T12:55:23.925Z,29.17
2023-01-18T12:57:52.580Z,28.80
2023-01-18T13:00:23.496Z,28.10
2023-01-18T13:02:53.125Z,26.60
2023-01-18T13:05:28.460Z,27.67
2023-01-18T13:08:06.288Z,26.97
2023-01-18T13:10:34.975Z,25.63
2023-01-18T13:13:02.782Z,26.10
2023-01-18T13:15:43.226Z,26.53
2023-01-18T13:18:21.851Z,26.40
2023-01-18T13:20:57.528Z,26.37
2023-01-18T13:23:34.698Z,26.47
2023-01-18T13:26:19.935Z,26.83
2023-01-18T13:28:46.366Z,29.27
2023-01-18T13:31:13.058Z,28.10
2023-01-18T13:33:45.416Z,31.57
2023-01-18T13:36:14.756Z,30.10
2023-01-18T13:38:50.141Z,31.07
2023-01-18T13:41:22.682Z,33.20
2023-01-18T13:43:53.293Z,34.30
2023-01-18T13:46:22.236Z,32.80
2023-01-18T13:48:52.977Z,31.00
2023-01-18T13:51:39.226Z,32.33
2023-01-18T13:54:10.875Z,30.30
2023-01-18T13:56:38.385Z,30.00
2023-01-18T13:59:14.479Z,29.53
2023-01-18T14:01:43.990Z,30.53
2023-01-18T14:04:23.797Z,30.37
2023-01-18T14:06:51.042Z,29.47
2023-01-18T14:09:28.090Z,30.80
2023-01-18T14:11:55.822Z,32.83
2023-01-18T14:14:31.701Z,31.80
2023-01-18T14:17:15.867Z,31.33
2023-01-18T14:19:48.311Z,31.30
2023-01-18T14:22:44.695Z,31.17
2023-01-18T14:25:40.432Z,30.90
2023-01-18T14:28:29.816Z,29.40
2023-01-18T14:30:58.557Z,29.63
2023-01-18T14:33:43.157Z,29.23
2023-01-18T14:36:23.509Z,27.97
2023-01-18T14:39:18.540Z,30.50
2023-01-18T14:41:46.167Z,27.30
2023-01-18T14:44:19.319Z,27.57
2023-01-18T14:46:57.358Z,27.73
2023-01-18T14:49:26.573Z,25.83
2023-01-18T14:51:53.723Z,24.27
2023-01-18T14:54:21.372Z,25.13
2023-01-18T14:56:47.829Z,24.77
2023-01-18T14:59:20.602Z,24.30
2023-01-18T15:01:55.814Z,22.23
2023-01-18T15:04:28.294Z,22.17
2023-01-18T15:07:06.928Z,22.73
2023-01-18T15:09:36.227Z,23.40
2023-01-18T15:12:05.876Z,23.80
2023-01-18T15:14:34.670Z,24.47
2023-01-18T15:17:02.153Z,63.43
2023-01-18T15:19:31.618Z,53.80
2023-01-18T15:22:00.394Z,27.97
2023-01-18T15:24:29.070Z,24.60
2023-01-18T15:26:57.044Z,23.47
2023-01-18T15:29:30.875Z,23.00
2023-01-18T15:32:02.223Z,23.03
2023-01-18T15:34:31.096Z,24.17
2023-01-18T15:36:59.155Z,24.47
2023-01-18T15:39:26.483Z,25.10
2023-01-18T15:41:55.495Z,25.33
2023-01-18T15:44:33.505Z,24.20
2023-01-18T15:47:00.511Z,24.13
2023-01-18T15:49:27.099Z,26.33
2023-01-18T15:51:56.405Z,29.03
2023-01-18T15:54:28.073Z,27.20
2023-01-18T15:56:57.429Z,24.07
2023-01-18T15:59:25.815Z,23.50
2023-01-18T16:02:25.810Z,25.93
2023-01-18T16:05:14.217Z,23.67
2023-01-18T16:07:43.589Z,22.07
2023-01-18T16:10:20.496Z,21.87
2023-01-18T16:12:46.962Z,23.67
2023-01-18T16:15:27.033Z,22.60
2023-01-18T16:18:06.359Z,21.63
2023-01-18T16:20:34.101Z,22.47
2023-01-18T16:23:08.491Z,21.77
2023-01-18T16:25:36.177Z,22.50
2023-01-18T16:28:04.124Z,25.13
2023-01-18T16:30:34.817Z,20.90
2023-01-18T16:33:17.686Z,21.17
2023-01-18T16:35:45.023Z,20.70
2023-01-18T16:38:13.062Z,22.27
2023-01-18T16:40:41.622Z,20.57
2023-01-18T16:43:17.997Z,20.10
2023-01-18T16:45:46.298Z,20.07
2023-01-18T16:48:15.962Z,19.30
2023-01-18T16:50:42.627Z,19.90
2023-01-18T16:53:09.053Z,20.60
2023-01-18T16:55:36.190Z,21.60
2023-01-18T16:58:02.936Z,20.07
2023-01-18T17:00:44.248Z,20.97
2023-01-18T17:03:10.683Z,19.47
2023-01-18T17:05:37.171Z,21.07
2023-01-18T17:08:04.912Z,22.27
2023-01-18T17:10:43.096Z,22.03
2023-01-18T17:13:09.729Z,19.43
2023-01-18T17:15:36.344Z,19.27
2023-01-18T17:18:03.399Z,19.23
2023-01-18T17:20:30.602Z,20.53
2023-01-18T17:22:57.393Z,19.67
2023-01-18T17:25:24.216Z,17.83
2023-01-18T17:27:51.247Z,20.67
2023-01-18T17:30:20.852Z,18.67
2023-01-18T17:32:47.913Z,20.07
2023-01-18T17:35:16.274Z,18.73
2023-01-18T17:37:42.762Z,21.00
2023-01-18T17:40:17.118Z,18.93
2023-01-18T17:42:49.487Z,18.10
2023-01-18T17:45:15.981Z,17.17
2023-01-18T17:47:43.094Z,16.70
2023-01-18T17:50:12.188Z,19.87
2023-01-18T17:52:40.048Z,18.80
2023-01-18T17:55:08.386Z,17.60
2023-01-18T17:57:35.033Z,15.70
2023-01-18T18:00:02.362Z,15.23
2023-01-18T18:02:28.920Z,14.73
2023-01-18T18:04:55.285Z,13.00
2023-01-18T18:07:21.748Z,13.87
2023-01-18T18:09:48.183Z,13.53
2023-01-18T18:12:14.653Z,14.30
2023-01-18T18:14:41.944Z,15.17
2023-01-18T18:17:08.427Z,16.33
2023-01-18T18:19:34.998Z,15.53
2023-01-18T18:22:01.613Z,14.40
2023-01-18T18:24:28.049Z,16.20
2023-01-18T18:26:54.685Z,15.13
2023-01-18T18:29:22.155Z,15.60
2023-01-18T18:31:48.729Z,14.80
2023-01-18T18:34:15.140Z,12.80
2023-01-18T18:36:41.644Z,12.93
2023-01-18T18:39:08.899Z,12.23
2023-01-18T18:41:35.615Z,12.87
2023-01-18T18:44:02.139Z,11.00
2023-01-18T18:46:28.763Z,12.20
2023-01-18T18:48:56.598Z,12.17
2023-01-18T18:51:23.977Z,11.07
2023-01-18T18:53:51.724Z,10.77
2023-01-18T18:56:18.293Z,10.50
2023-01-18T18:58:47.162Z,10.10
2023-01-18T19:01:29.273Z,10.83
2023-01-18T19:03:56.731Z,10.73
2023-01-18T19:06:23.669Z,11.00
2023-01-18T19:08:50.266Z,11.70
2023-01-18T19:11:17.025Z,12.30
2023-01-18T19:13:44.450Z,11.83
2023-01-18T19:16:11.348Z,12.17
2023-01-18T19:18:37.907Z,13.17
2023-01-18T19:21:04.655Z,11.60
2023-01-18T19:23:31.554Z,9.93
2023-01-18T19:25:58.815Z,11.80
2023-01-18T19:28:25.293Z,11.20
2023-01-18T19:30:51.769Z,10.20
2023-01-18T19:33:18.274Z,9.50
2023-01-18T19:35:45.861Z,10.97
2023-01-18T19:38:13.172Z,9.93
2023-01-18T19:40:39.787Z,9.47
2023-01-18T19:43:06.220Z,9.27
2023-01-18T19:45:32.781Z,9.20
2023-01-18T19:48:00.590Z,9.67
2023-01-18T19:50:28.589Z,8.63
2023-01-18T19:52:55.194Z,7.87
2023-01-18T19:55:22.140Z,8.07
2023-01-18T19:57:49.615Z,7.87
2023-01-18T20:00:16.681Z,8.20
2023-01-18T20:02:43.187Z,8.90
2023-01-18T20:05:10.277Z,8.37
2023-01-18T20:07:40.501Z,10.37
2023-01-18T20:10:08.164Z,9.53
2023-01-18T20:12:35.122Z,11.00
2023-01-18T20:15:01.898Z,10.40
2023-01-18T20:17:28.307Z,10.63
2023-01-18T20:19:55.502Z,12.00
2023-01-18T20:22:22.658Z,12.33
2023-01-18T20:24:49.224Z,13.67
2023-01-18T20:27:17.221Z,14.13
2023-01-18T20:29:45.014Z,14.53
2023-01-18T20:32:17.133Z,15.50
2023-01-18T20:34:45.225Z,16.00
2023-01-18T20:37:12.861Z,16.37
2023-01-18T20:39:39.997Z,16.80
2023-01-18T20:42:07.075Z,16.03
2023-01-18T20:44:34.384Z,17.00
2023-01-18T20:47:00.921Z,17.47
2023-01-18T20:49:37.278Z,17.40
2023-01-18T20:52:05.252Z,17.43
2023-01-18T20:54:34.627Z,18.73
2023-01-18T20:57:01.590Z,16.90
2023-01-18T20:59:28.220Z,17.47
2023-01-18T21:01:54.928Z,17.03
2023-01-18T21:04:21.877Z,16.70
2023-01-18T21:06:49.862Z,18.00
2023-01-18T21:09:16.785Z,18.57
2023-01-18T21:11:43.296Z,18.20
2023-01-18T21:14:09.876Z,18.27
2023-01-18T21:16:36.417Z,18.83
2023-01-18T21:19:03.036Z,18.83
2023-01-18T21:21:31.686Z,19.17
2023-01-18T21:23:59.014Z,18.47
2023-01-18T21:26:25.707Z,18.00
2023-01-18T21:28:52.222Z,18.13
2023-01-18T21:31:19.026Z,19.33
2023-01-18T21:33:46.177Z,17.47
2023-01-18T21:36:15.020Z,17.60
2023-01-18T21:38:41.832Z,18.00
2023-01-18T21:41:27.524Z,18.67
2023-01-18T21:44:12.904Z,20.30
2023-01-18T21:46:45.024Z,18.60
2023-01-18T21:49:52.109Z,18.40
2023-01-18T21:52:36.333Z,17.80
2023-01-18T21:55:02.758Z,17.77
2023-01-18T21:57:29.264Z,17.97
2023-01-18T21:59:55.669Z,16.83
2023-01-18T22:02:22.583Z,16.40
2023-01-18T22:05:03.166Z,16.80
2023-01-18T22:07:32.887Z,17.37
2023-01-18T22:10:05.050Z,17.23
2023-01-18T22:12:35.075Z,17.17
2023-01-18T22:15:04.587Z,17.73
2023-01-18T22:17:31.324Z,17.33
2023-01-18T22:19:57.846Z,16.77
2023-01-18T22:22:24.330Z,16.67
2023-01-18T22:24:50.726Z,16.20
2023-01-18T22:27:17.195Z,16.50
2023-01-18T22:29:43.587Z,16.30
2023-01-18T22:32:10.033Z,17.53
2023-01-18T22:34:36.433Z,16.70
2023-01-18T22:37:03.271Z,15.77
2023-01-18T22:39:30.078Z,16.80
2023-01-18T22:41:56.497Z,16.70
2023-01-18T22:44:23.022Z,18.07
2023-01-18T22:46:49.463Z,16.83
2023-01-18T22:49:15.964Z,17.50
2023-01-18T22:51:42.464Z,16.77
2023-01-18T22:54:09.077Z,16.43
2023-01-18T22:56:35.636Z,16.83
2023-01-18T22:59:02.209Z,17.03
2023-01-18T23:01:31.145Z,17.53
2023-01-18T23:04:01.065Z,17.37
2023-01-18T23:06:28.879Z,17.33
2023-01-18T23:08:56.102Z,17.10
2023-01-18T23:11:25.492Z,18.03
2023-01-18T23:14:13.724Z,17.77
2023-01-18T23:16:59.566Z,17.83
2023-01-18T23:19:28.776Z,17.80
2023-01-18T23:21:56.416Z,16.80
2023-01-18T23:24:23.671Z,16.60
2023-01-18T23:26:51.117Z,17.30
2023-01-18T23:29:18.178Z,18.50
2023-01-18T23:31:44.913Z,17.07
2023-01-18T23:34:11.470Z,16.53
2023-01-18T23:36:38.429Z,16.63
2023-01-18T23:39:23.688Z,16.87
2023-01-18T23:42:08.513Z,17.50
2023-01-18T23:44:53.452Z,17.23
2023-01-18T23:47:38.547Z,16.57
2023-01-18T23:50:23.975Z,18.00
2023-01-18T23:53:09.209Z,17.77
2023-01-18T23:55:35.585Z,19.47
2023-01-18T23:58:02.422Z,20.17
